Time;durP1;ratioP1;P1;durP2;ratioP2;P2;SDS_P1;SDS_P2;PMS_P1;PMS_P2;Temp;Humidity;BMP_temperature;BMP_pressure;BME280_temperature;BME280_humidity;BME280_pressure;Samples;Min_cycle;Max_cycle;Signal;HPM_P1;HPM_P2
2023/07/19 00:01:14;;;;;;;0.10;0.10;;;;;;;13.73;100.00;101284.19;5052464;28;20473;-49
2023/07/19 00:03:39;;;;;;;0.10;0.10;;;;;;;13.74;100.00;101285.09;5051192;28;20141;-48
2023/07/19 00:06:04;;;;;;;0.10;0.10;;;;;;;13.69;100.00;101282.38;5052458;28;20029;-49
2023/07/19 00:08:33;;;;;;;0.08;0.08;;;;;;;13.53;100.00;101285.44;5051881;28;20075;-47
2023/07/19 00:10:59;;;;;;;0.10;0.10;;;;;;;13.47;100.00;101281.84;5051380;28;20369;-49
2023/07/19 00:13:24;;;;;;;0.00;0.00;;;;;;;13.48;100.00;101272.38;5052252;28;20499;-47
2023/07/19 00:15:49;;;;;;;0.10;0.10;;;;;;;13.46;100.00;101272.31;5055893;28;20023;-49
2023/07/19 00:18:15;;;;;;;0.10;0.10;;;;;;;13.37;100.00;101269.50;5054922;28;20104;-47
2023/07/19 00:20:40;;;;;;;0.00;0.00;;;;;;;13.44;100.00;101279.19;5055679;28;20025;-49
2023/07/19 00:23:06;;;;;;;0.00;0.00;;;;;;;13.41;100.00;101281.69;5055825;28;20060;-47
2023/07/19 00:25:31;;;;;;;0.08;0.08;;;;;;;13.31;100.00;101277.09;5054519;28;20036;-48
2023/07/19 00:27:56;;;;;;;0.10;0.10;;;;;;;13.23;100.00;101269.13;5055739;28;20146;-45
2023/07/19 00:30:22;;;;;;;0.10;0.10;;;;;;;13.24;100.00;101264.84;5055657;28;20116;-47
2023/07/19 00:32:47;;;;;;;0.10;0.10;;;;;;;13.25;100.00;101257.13;5054738;28;20017;-47
2023/07/19 00:35:13;;;;;;;0.10;0.10;;;;;;;13.27;100.00;101257.16;5055747;28;20487;-49
2023/07/19 00:37:38;;;;;;;0.00;0.00;;;;;;;13.26;100.00;101251.09;5055317;28;20410;-49
2023/07/19 00:40:05;;;;;;;0.08;0.08;;;;;;;13.27;100.00;101255.44;5054738;28;20503;-48
2023/07/19 00:42:30;;;;;;;0.10;0.10;;;;;;;13.27;100.00;101249.38;5054822;28;20041;-49
2023/07/19 00:44:56;;;;;;;0.10;0.10;;;;;;;13.25;100.00;101238.13;5055254;28;20028;-49
2023/07/19 00:47:21;;;;;;;0.10;0.10;;;;;;;13.17;100.00;101238.81;5054416;28;20051;-48
2023/07/19 00:49:47;;;;;;;0.10;0.10;;;;;;;13.13;100.00;101234.41;5055108;28;20025;-49
2023/07/19 00:52:13;;;;;;;0.10;0.10;;;;;;;13.14;100.00;101236.16;5055481;28;20043;-49
2023/07/19 00:54:39;;;;;;;0.10;0.10;;;;;;;13.14;100.00;101230.97;5054132;28;20076;-46
2023/07/19 00:57:06;;;;;;;0.10;0.10;;;;;;;13.15;100.00;101232.69;5055030;28;20064;-47
2023/07/19 00:59:32;;;;;;;0.10;0.10;;;;;;;13.04;100.00;101233.28;5054702;28;20033;-48
2023/07/19 01:01:58;;;;;;;0.10;0.10;;;;;;;13.05;100.00;101228.13;5054552;28;20025;-48
2023/07/19 01:04:25;;;;;;;0.10;0.10;;;;;;;13.07;100.00;101234.22;5054636;28;20040;-48
2023/07/19 01:06:51;;;;;;;0.10;0.10;;;;;;;13.03;100.00;101227.22;5054871;28;20036;-47
2023/07/19 01:09:16;;;;;;;0.10;0.10;;;;;;;13.01;100.00;101229.78;5054278;28;20055;-48
2023/07/19 01:11:41;;;;;;;0.10;0.10;;;;;;;12.96;100.00;101233.06;5054411;28;20049;-48
2023/07/19 01:14:07;;;;;;;0.05;0.05;;;;;;;12.93;100.00;101233.00;5053890;28;20021;-47
2023/07/19 01:16:33;;;;;;;0.10;0.10;;;;;;;12.92;100.00;101229.53;5054246;28;20392;-49
2023/07/19 01:18:58;;;;;;;0.10;0.10;;;;;;;13.24;100.00;101224.28;5054848;28;20021;-49
2023/07/19 01:21:24;;;;;;;0.10;0.10;;;;;;;13.16;100.00;101218.94;5053730;28;20033;-47
2023/07/19 01:23:50;;;;;;;0.10;0.10;;;;;;;12.99;100.00;101215.91;5054723;28;20037;-46
2023/07/19 01:26:16;;;;;;;0.10;0.10;;;;;;;13.02;100.00;101210.81;5053976;28;20025;-47
2023/07/19 01:28:41;;;;;;;0.10;0.10;;;;;;;13.25;100.00;101213.13;5053522;28;20032;-49
2023/07/19 01:31:07;;;;;;;0.10;0.10;;;;;;;13.42;100.00;101207.50;5054349;28;20385;-49
2023/07/19 01:33:32;;;;;;;0.10;0.10;;;;;;;13.42;100.00;101205.78;5054219;28;20021;-49
2023/07/19 01:35:58;;;;;;;0.10;0.10;;;;;;;13.46;100.00;101196.38;5053718;28;20071;-48
2023/07/19 01:38:23;;;;;;;0.10;0.10;;;;;;;13.20;100.00;101196.59;5054066;28;20021;-50
2023/07/19 01:40:49;;;;;;;0.10;0.10;;;;;;;13.14;100.00;101191.25;5054086;28;20033;-50
2023/07/19 01:43:14;;;;;;;0.10;0.10;;;;;;;13.19;100.00;101194.84;5053521;28;20112;-49
2023/07/19 01:45:40;;;;;;;0.10;0.10;;;;;;;13.11;100.00;101197.22;5053625;28;20112;-49
2023/07/19 01:48:05;;;;;;;0.10;0.10;;;;;;;12.98;100.00;101215.88;5054066;28;20381;-49
2023/07/19 01:50:31;;;;;;;0.10;0.10;;;;;;;12.85;100.00;101210.38;5052903;28;20041;-48
2023/07/19 01:52:57;;;;;;;0.10;0.10;;;;;;;12.75;100.00;101216.16;5054124;28;20055;-48
2023/07/19 01:55:23;;;;;;;0.10;0.10;;;;;;;12.76;100.00;101207.56;5053751;28;20029;-48
2023/07/19 01:57:48;;;;;;;0.10;0.10;;;;;;;12.81;100.00;101215.47;5053110;28;20020;-49
2023/07/19 02:00:14;;;;;;;0.10;0.10;;;;;;;12.73;100.00;101209.19;5053799;28;20053;-49
2023/07/19 02:02:40;;;;;;;0.10;0.10;;;;;;;12.71;100.00;101208.28;5053654;28;20033;-45
2023/07/19 02:05:06;;;;;;;0.10;0.10;;;;;;;12.69;100.00;101208.22;5053017;28;20051;-49
2023/07/19 02:07:31;;;;;;;0.10;0.10;;;;;;;12.73;100.00;101202.31;5053411;28;20082;-49
2023/07/19 02:09:56;;;;;;;0.10;0.10;;;;;;;12.77;100.00;101198.97;5053842;28;20381;-45
2023/07/19 02:12:22;;;;;;;0.10;0.10;;;;;;;12.70;100.00;101202.22;5052932;28;20116;-47
2023/07/19 02:14:47;;;;;;;0.10;0.10;;;;;;;12.68;100.00;101199.59;5053389;28;20021;-48
2023/07/19 02:17:12;;;;;;;0.10;0.10;;;;;;;12.58;100.00;101188.97;5053131;28;20028;-48
2023/07/19 02:19:38;;;;;;;0.10;0.10;;;;;;;12.57;100.00;101195.84;5053047;28;20043;-49
2023/07/19 02:22:03;;;;;;;0.10;0.10;;;;;;;12.50;100.00;101194.81;5053411;28;20493;-48
2023/07/19 02:24:28;;;;;;;0.08;0.08;;;;;;;12.56;100.00;101194.09;5052257;28;20029;-48
2023/07/19 02:26:54;;;;;;;0.10;0.10;;;;;;;12.45;100.00;101183.47;5053625;28;20083;-49
2023/07/19 02:29:19;;;;;;;0.10;0.10;;;;;;;12.41;100.00;101186.81;5053308;28;20028;-48
2023/07/19 02:31:44;;;;;;;0.10;0.10;;;;;;;12.50;100.00;101181.88;5052390;28;20044;-48
2023/07/19 02:34:10;;;;;;;0.10;0.10;;;;;;;12.49;100.00;101185.28;5053502;28;20103;-48
2023/07/19 02:36:35;;;;;;;0.10;0.10;;;;;;;12.49;100.00;101182.72;5052548;28;20017;-49
2023/07/19 02:39:02;;;;;;;0.10;0.10;;;;;;;12.58;100.00;101181.22;5052101;28;20032;-47
2023/07/19 02:41:28;;;;;;;0.10;0.10;;;;;;;12.60;100.00;101185.59;5052785;28;20125;-48
2023/07/19 02:43:53;;;;;;;0.10;0.10;;;;;;;12.68;100.00;101188.41;5053178;28;20032;-49
2023/07/19 02:46:20;;;;;;;0.10;0.10;;;;;;;12.68;100.00;101178.91;5052513;28;20021;-49
2023/07/19 02:48:45;;;;;;;0.10;0.10;;;;;;;12.62;100.00;101180.47;5052662;28;20070;-47
2023/07/19 02:51:10;;;;;;;0.10;0.10;;;;;;;12.69;100.00;101190.13;5053150;28;20028;-48
2023/07/19 02:53:37;;;;;;;0.10;0.10;;;;;;;12.70;100.00;101197.06;5051982;28;20021;-49
2023/07/19 02:56:03;;;;;;;0.10;0.10;;;;;;;12.77;100.00;101188.63;5053089;28;20025;-49
2023/07/19 02:58:28;;;;;;;0.10;0.10;;;;;;;12.69;100.00;101195.28;5052582;28;20077;-48
2023/07/19 03:00:54;;;;;;;0.10;0.10;;;;;;;12.64;100.00;101196.88;5052075;28;20036;-47
2023/07/19 03:03:19;;;;;;;0.00;0.00;;;;;;;12.65;100.00;101198.63;5053078;28;20064;-49
2023/07/19 03:05:45;;;;;;;0.10;0.10;;;;;;;12.71;100.00;101188.47;5052581;28;20032;-49
2023/07/19 03:08:11;;;;;;;0.08;0.08;;;;;;;12.77;100.00;101183.47;5052065;28;20104;-49
2023/07/19 03:10:37;;;;;;;0.10;0.10;;;;;;;12.76;100.00;101196.34;5052447;28;20031;-49
2023/07/19 03:13:03;;;;;;;0.20;0.20;;;;;;;12.77;100.00;101191.22;5052636;28;20025;-50
2023/07/19 03:15:32;;;;;;;0.10;0.10;;;;;;;12.79;100.00;101191.25;5051808;28;20044;-48
2023/07/19 03:17:59;;;;;;;0.10;0.10;;;;;;;12.81;100.00;101195.63;5052858;28;20045;-48
2023/07/19 03:20:25;;;;;;;0.10;0.10;;;;;;;12.82;100.00;101193.91;5052426;28;20025;-49
2023/07/19 03:22:51;;;;;;;0.10;0.10;;;;;;;12.87;100.00;101194.03;5052028;28;20025;-48
2023/07/19 03:25:16;;;;;;;0.10;0.10;;;;;;;12.88;100.00;101200.97;5052627;28;20032;-48
2023/07/19 03:27:41;;;;;;;0.10;0.10;;;;;;;13.01;100.00;101200.44;5051508;28;20029;-46
2023/07/19 03:30:07;;;;;;;0.10;0.10;;;;;;;13.04;100.00;101197.03;5052609;28;21001;-49
2023/07/19 03:32:33;;;;;;;0.00;0.00;;;;;;;13.09;100.00;101196.34;5052409;28;20033;-48
2023/07/19 03:34:58;;;;;;;0.10;0.10;;;;;;;13.12;100.00;101196.41;5051845;28;20052;-49
2023/07/19 03:37:24;;;;;;;0.10;0.10;;;;;;;13.20;100.00;101204.34;5052371;28;20485;-48
2023/07/19 03:39:49;;;;;;;0.10;0.10;;;;;;;13.22;100.00;101205.28;5052415;28;20021;-46
2023/07/19 03:42:14;;;;;;;0.10;0.10;;;;;;;13.24;100.00;101200.13;5051371;28;20041;-49
2023/07/19 03:44:40;;;;;;;0.10;0.10;;;;;;;13.30;100.00;101202.88;5052184;28;20059;-49
2023/07/19 03:47:05;;;;;;;0.10;0.10;;;;;;;13.31;100.00;101212.38;5052576;28;20032;-49
2023/07/19 03:49:31;;;;;;;0.10;0.10;;;;;;;13.27;100.00;101203.69;5053518;28;20017;-44
2023/07/19 03:51:56;;;;;;;0.10;0.10;;;;;;;13.31;100.00;101205.50;5056548;28;20017;-44
2023/07/19 03:54:21;;;;;;;0.10;0.10;;;;;;;13.28;100.00;101205.41;5056379;28;20025;-46
2023/07/19 03:56:46;;;;;;;0.10;0.10;;;;;;;13.30;100.00;101201.16;5055144;28;20021;-51
2023/07/19 03:59:12;;;;;;;0.10;0.10;;;;;;;13.39;100.00;101205.72;5056061;28;20098;-47
2023/07/19 04:01:38;;;;;;;0.10;0.10;;;;;;;13.42;100.00;101210.09;5055964;28;20143;-44
2023/07/19 04:04:03;;;;;;;0.10;0.10;;;;;;;13.53;100.00;101208.63;5055324;28;20032;-44
2023/07/19 04:06:29;;;;;;;0.10;0.10;;;;;;;13.55;100.00;101206.94;5055779;28;20028;-48
2023/07/19 04:08:55;;;;;;;0.10;0.10;;;;;;;13.57;100.00;101202.69;5056129;28;20488;-45
2023/07/19 04:11:20;;;;;;;0.13;0.13;;;;;;;13.57;100.00;101201.78;5055233;28;20082;-47
2023/07/19 04:13:46;;;;;;;0.10;0.10;;;;;;;13.62;100.00;101195.00;5055661;28;20032;-46
2023/07/19 04:16:11;;;;;;;0.10;0.10;;;;;;;13.69;100.00;101191.72;5056256;28;20082;-49
2023/07/19 04:18:37;;;;;;;0.10;0.10;;;;;;;13.71;100.00;101197.81;5054921;28;20039;-47
2023/07/19 04:21:03;;;;;;;0.10;0.10;;;;;;;13.64;100.00;101194.19;5055372;28;20033;-44
2023/07/19 04:23:28;;;;;;;0.10;0.10;;;;;;;13.63;100.00;101199.34;5055470;28;20035;-47
2023/07/19 04:25:53;;;;;;;0.10;0.10;;;;;;;13.71;100.00;101197.81;5054800;28;20029;-48
2023/07/19 04:28:19;;;;;;;0.10;0.10;;;;;;;13.72;100.00;101194.38;5055488;28;20416;-44
2023/07/19 04:30:45;;;;;;;0.10;0.10;;;;;;;13.76;100.00;101200.50;5055193;28;20350;-44
2023/07/19 04:33:10;;;;;;;0.10;0.10;;;;;;;13.76;100.00;101200.50;5054880;28;20537;-44
2023/07/19 04:35:36;;;;;;;0.10;0.10;;;;;;;13.81;100.00;101193.69;5055356;28;20504;-48
2023/07/19 04:38:03;;;;;;;0.10;0.10;;;;;;;13.85;100.00;101194.66;5054739;28;20028;-44
2023/07/19 04:40:29;;;;;;;;;;;;;;;14.02;100.00;101202.78;5055579;28;20017;-46
2023/07/19 04:42:54;;;;;;;0.10;0.10;;;;;;;14.01;100.00;101207.09;5055097;28;19963;-48
2023/07/19 04:45:19;;;;;;;0.10;0.10;;;;;;;14.15;100.00;101205.66;5054279;28;20488;-48
2023/07/19 04:47:45;;;;;;;0.10;0.10;;;;;;;14.21;100.00;101204.03;5054848;28;20029;-50
2023/07/19 04:50:10;;;;;;;0.10;0.10;;;;;;;14.26;100.00;101213.66;5055005;28;20021;-43
2023/07/19 04:52:36;;;;;;;0.10;0.10;;;;;;;14.34;100.00;101206.03;5053905;28;20017;-49
2023/07/19 04:55:03;;;;;;;0.10;0.10;;;;;;;14.39;100.00;101213.91;5055024;28;20469;-43
2023/07/19 04:57:28;;;;;;;0.10;0.10;;;;;;;14.44;100.00;101213.13;5054694;28;20104;-49
2023/07/19 04:59:53;;;;;;;0.10;0.10;;;;;;;14.52;100.00;101210.69;5053803;28;20029;-45
2023/07/19 05:02:19;;;;;;;0.10;0.10;;;;;;;14.57;100.00;101218.56;5054714;28;20477;-44
2023/07/19 05:04:44;;;;;;;0.10;0.10;;;;;;;14.64;100.00;101218.75;5054695;28;20104;-49
2023/07/19 05:07:09;;;;;;;0.10;0.10;;;;;;;14.74;100.00;101217.19;5054160;28;20033;-44
2023/07/19 05:09:35;;;;;;;0.10;0.10;;;;;;;14.79;100.00;101215.56;5054810;28;20025;-48
2023/07/19 05:12:00;;;;;;;0.10;0.10;;;;;;;14.89;100.00;101220.94;5054905;28;20380;-49
2023/07/19 05:14:26;;;;;;;0.10;0.10;;;;;;;14.97;100.00;101215.00;5053869;28;20025;-44
2023/07/19 05:16:51;;;;;;;0.10;0.10;;;;;;;15.03;100.00;101222.03;5054840;28;20025;-46
2023/07/19 05:19:17;;;;;;;0.10;0.10;;;;;;;15.08;100.00;101211.72;5054567;28;20405;-45
2023/07/19 05:21:42;;;;;;;0.20;0.10;;;;;;;15.14;100.00;101215.31;5053573;28;20064;-45
2023/07/19 05:24:08;;;;;;;0.10;0.10;;;;;;;15.28;100.00;101225.03;5054464;28;20381;-46
2023/07/19 05:26:33;;;;;;;0.10;0.10;;;;;;;15.38;100.00;101221.75;5054367;28;20079;-48
2023/07/19 05:28:59;;;;;;;0.10;0.10;;;;;;;15.50;100.00;101220.19;5053665;28;20062;-48
2023/07/19 05:31:24;;;;;;;0.10;0.10;;;;;;;15.64;100.00;101213.47;5054321;28;20036;-50
2023/07/19 05:33:49;;;;;;;0.00;0.00;;;;;;;15.67;100.00;101213.50;5054607;28;20158;-49
2023/07/19 05:36:15;;;;;;;0.05;0.05;;;;;;;15.77;100.00;101211.91;5053648;28;20385;-44
2023/07/19 05:38:40;;;;;;;0.10;0.10;;;;;;;15.86;100.00;101219.00;5054051;28;20043;-49
2023/07/19 05:41:09;;;;;;;0.10;0.10;;;;;;;15.94;100.00;101218.25;5053932;28;20392;-44
2023/07/19 05:43:34;;;;;;;0.08;0.08;;;;;;;15.99;100.00;101215.72;5053321;28;20138;-45
2023/07/19 05:46:07;;;;;;;0.10;0.10;;;;;;;16.11;100.00;101221.09;5054258;28;20029;-44
2023/07/19 05:48:33;;;;;;;0.10;0.10;;;;;;;16.19;100.00;101212.50;5052898;28;20033;-47
2023/07/19 05:51:00;;;;;;;0.10;0.10;;;;;;;16.37;100.00;101215.31;5054090;28;20028;-46
2023/07/19 05:53:25;;;;;;;0.10;0.10;;;;;;;16.45;100.00;101213.66;5053715;28;20021;-49
2023/07/19 05:55:52;;;;;;;0.10;0.10;;;;;;;16.53;99.49;101212.91;5053211;28;20163;-46
2023/07/19 05:58:18;;;;;;;0.00;0.00;;;;;;;16.56;99.05;101218.13;5054090;28;20091;-44
2023/07/19 06:00:44;;;;;;;0.10;0.10;;;;;;;16.59;99.54;101218.16;5053738;28;20029;-50
2023/07/19 06:03:09;;;;;;;0.10;0.10;;;;;;;16.62;97.38;101216.44;5053084;28;20021;-50
2023/07/19 06:05:34;;;;;;;0.10;0.10;;;;;;;16.66;97.71;101214.75;5053453;28;20045;-47
2023/07/19 06:08:00;;;;;;;0.00;0.00;;;;;;;16.72;97.76;101219.16;5053781;28;20057;-45
2023/07/19 06:10:25;;;;;;;0.03;0.03;;;;;;;16.76;97.32;101221.81;5052488;28;20445;-49
2023/07/19 06:12:51;;;;;;;0.10;0.10;;;;;;;16.86;96.75;101216.69;5053357;28;20083;-50
2023/07/19 06:15:16;;;;;;;0.00;0.00;;;;;;;17.00;95.28;101219.47;5053598;28;20062;-44
2023/07/19 06:17:43;;;;;;;0.00;0.00;;;;;;;17.07;95.00;101211.72;5052721;28;20138;-45
2023/07/19 06:20:12;;;;;;;0.00;0.00;;;;;;;17.18;94.10;101218.75;5053596;28;20107;-49
2023/07/19 06:22:38;;;;;;;0.00;0.00;;;;;;;17.25;93.27;101223.16;5053105;28;20025;-49
2023/07/19 06:25:04;;;;;;;0.00;0.00;;;;;;;17.24;92.65;101208.38;5052867;28;20036;-45
2023/07/19 06:27:29;;;;;;;0.00;0.00;;;;;;;17.38;92.39;101211.09;5053301;28;20029;-47
2023/07/19 06:29:54;;;;;;;0.00;0.00;;;;;;;17.41;91.89;101211.09;5053510;28;20099;-48
2023/07/19 06:32:20;;;;;;;0.00;0.00;;;;;;;17.39;90.94;101213.69;5052661;28;20028;-44
2023/07/19 06:34:45;;;;;;;0.00;0.00;;;;;;;17.45;91.68;101210.25;5053117;28;20025;-44
2023/07/19 06:37:11;;;;;;;0.10;0.10;;;;;;;17.47;91.35;101210.25;5053251;28;20025;-47
2023/07/19 06:39:36;;;;;;;0.00;0.00;;;;;;;17.36;91.18;101207.59;5051940;28;20424;-48
2023/07/19 06:42:01;;;;;;;0.20;0.10;;;;;;;17.31;91.38;101214.50;5052925;28;20044;-44
2023/07/19 06:44:27;;;;;;;0.00;0.00;;;;;;;17.42;91.89;101216.31;5052822;28;20074;-49
2023/07/19 06:46:52;;;;;;;0.10;0.10;;;;;;;17.57;91.90;101222.50;5052653;28;20033;-50
2023/07/19 06:49:18;;;;;;;0.00;0.00;;;;;;;17.63;89.67;101216.47;5053447;28;20027;-45
2023/07/19 06:51:44;;;;;;;0.00;0.00;;;;;;;17.75;89.81;101217.41;5051963;28;20400;-48
2023/07/19 06:54:09;;;;;;;0.00;0.00;;;;;;;18.01;89.00;101214.09;5052883;28;20028;-49
2023/07/19 06:56:34;;;;;;;0.10;0.10;;;;;;;18.23;87.87;101208.97;5052789;28;20023;-48
2023/07/19 06:59:00;;;;;;;0.00;0.00;;;;;;;18.34;87.37;101212.47;5052193;28;20064;-46
2023/07/19 07:01:25;;;;;;;0.00;0.00;;;;;;;18.70;88.46;101216.06;5052633;28;20029;-47
2023/07/19 07:03:51;;;;;;;0.00;0.00;;;;;;;18.84;86.52;101215.22;5052798;28;20108;-44
2023/07/19 07:06:16;;;;;;;0.10;0.10;;;;;;;18.99;85.67;101217.88;5051927;28;20025;-49
2023/07/19 07:08:42;;;;;;;0.00;0.00;;;;;;;19.18;84.29;101210.91;5052434;28;20078;-45
2023/07/19 07:11:07;;;;;;;0.00;0.00;;;;;;;19.34;84.57;101214.38;5052709;28;20036;-48
2023/07/19 07:13:33;;;;;;;0.00;0.00;;;;;;;19.48;82.61;101216.09;5051774;28;20487;-49
2023/07/19 07:15:59;;;;;;;0.00;0.00;;;;;;;19.38;81.96;101223.97;5052909;28;20086;-44
2023/07/19 07:18:24;;;;;;;0.00;0.00;;;;;;;19.50;81.52;101224.81;5052463;28;20025;-44
2023/07/19 07:20:55;;;;;;;0.10;0.10;;;;;;;19.83;80.31;101226.53;5051874;28;20370;-50
2023/07/19 07:23:21;;;;;;;0.00;0.00;;;;;;;19.96;79.76;101222.13;5052728;28;20469;-44
2023/07/19 07:25:51;;;;;;;0.00;0.00;;;;;;;20.03;78.99;101220.34;5056542;28;20064;-46
2023/07/19 07:28:17;;;;;;;0.10;0.10;;;;;;;20.21;78.60;101222.03;5055932;28;20097;-49
2023/07/19 07:30:42;;;;;;;0.00;0.00;;;;;;;20.10;77.63;101229.06;5056407;28;20032;-44
2023/07/19 07:33:08;;;;;;;0.00;0.00;;;;;;;20.18;79.49;101219.41;5056777;28;20033;-50
2023/07/19 07:35:33;;;;;;;0.03;0.03;;;;;;;20.15;78.77;101219.44;5055393;28;20041;-49
2023/07/19 07:37:59;;;;;;;0.00;0.00;;;;;;;20.06;77.72;101216.00;5056730;28;20036;-48
2023/07/19 07:40:24;;;;;;;0.08;0.08;;;;;;;20.07;78.56;101222.94;5056492;28;20377;-47
2023/07/19 07:42:49;;;;;;;0.20;0.00;;;;;;;19.94;76.88;101215.16;5055627;28;20200;-47
2023/07/19 07:45:15;;;;;;;0.00;0.00;;;;;;;19.86;77.12;101213.44;5056491;28;20059;-47
2023/07/19 07:47:40;;;;;;;0.00;0.00;;;;;;;19.94;78.99;101209.94;5056111;28;20473;-46
2023/07/19 07:50:08;;;;;;;0.10;0.10;;;;;;;19.92;78.30;101212.53;5055661;28;20500;-50
2023/07/19 07:52:34;;;;;;;0.00;0.00;;;;;;;19.86;77.20;101209.97;5056009;28;20029;-51
2023/07/19 07:55:00;;;;;;;0.00;0.00;;;;;;;19.85;76.26;101206.47;5055766;28;20051;-45
2023/07/19 07:57:25;;;;;;;0.00;0.00;;;;;;;19.85;76.83;101214.31;5056130;28;20455;-44
2023/07/19 07:59:51;;;;;;;0.00;0.00;;;;;;;19.88;76.63;101210.81;5056318;28;20025;-44
2023/07/19 08:02:16;;;;;;;0.00;0.00;;;;;;;19.97;75.28;101210.78;5055368;28;20532;-44
2023/07/19 08:04:41;;;;;;;0.00;0.00;;;;;;;20.02;75.37;101208.16;5055728;28;20472;-49
2023/07/19 08:07:07;;;;;;;0.08;0.08;;;;;;;19.97;75.58;101209.91;5056027;28;20519;-48
2023/07/19 08:09:33;;;;;;;0.00;0.00;;;;;;;19.92;76.02;101212.53;5054976;28;20033;-47
2023/07/19 08:11:59;;;;;;;0.00;0.00;;;;;;;20.00;76.02;101210.78;5056131;28;20024;-49
2023/07/19 08:14:24;;;;;;;0.00;0.00;;;;;;;20.15;76.85;101208.97;5055653;28;20086;-44
2023/07/19 08:16:53;;;;;;;0.00;0.00;;;;;;;20.28;74.51;101202.78;5055124;28;20024;-48
2023/07/19 08:19:18;;;;;;;0.17;0.00;;;;;;;20.26;72.85;101194.09;5055706;28;20048;-49
2023/07/19 08:21:44;;;;;;;0.00;0.00;;;;;;;20.64;73.89;101187.75;5055521;28;20369;-43
2023/07/19 08:24:09;;;;;;;0.00;0.00;;;;;;;21.04;72.99;101179.63;5055107;28;20163;-50
2023/07/19 08:26:35;;;;;;;0.00;0.00;;;;;;;21.13;71.55;101178.66;5055420;28;20033;-50
2023/07/19 08:29:00;;;;;;;0.00;0.00;;;;;;;21.41;71.62;101195.88;5055821;28;20032;-45
2023/07/19 08:31:25;;;;;;;0.00;0.00;;;;;;;21.51;71.51;101187.03;5054532;28;20083;-47
2023/07/19 08:33:52;;;;;;;0.00;0.00;;;;;;;21.71;66.26;101194.72;5055569;28;20052;-48
2023/07/19 08:36:18;;;;;;;0.00;0.00;;;;;;;21.66;64.08;101192.16;5055363;28;20548;-47
2023/07/19 08:38:43;;;;;;;0.00;0.00;;;;;;;21.68;65.44;101198.25;5054296;28;20124;-45
2023/07/19 08:41:12;;;;;;;0.00;0.00;;;;;;;21.57;67.10;101202.75;5055378;28;20112;-48
2023/07/19 08:43:38;;;;;;;0.00;0.00;;;;;;;21.38;65.26;101192.41;5055119;28;20108;-48
2023/07/19 08:46:04;;;;;;;0.00;0.00;;;;;;;21.31;67.96;101195.97;5054447;28;20024;-49
2023/07/19 08:48:31;;;;;;;0.00;0.00;;;;;;;21.10;67.51;101196.19;5054941;28;20115;-44
2023/07/19 08:51:00;;;;;;;0.00;0.00;;;;;;;21.05;67.78;101191.81;5055230;28;20056;-45
2023/07/19 08:53:26;;;;;;;0.00;0.00;;;;;;;21.08;67.19;101195.31;5054199;28;20028;-47
2023/07/19 08:55:52;;;;;;;0.00;0.00;;;;;;;21.12;67.67;101189.16;5055169;28;20033;-48
2023/07/19 08:58:18;;;;;;;0.00;0.00;;;;;;;21.26;68.25;101200.38;5054499;28;20027;-44
2023/07/19 09:00:48;;;;;;;0.00;0.00;;;;;;;21.60;67.62;101202.72;5054670;28;20479;-50
2023/07/19 09:03:14;;;;;;;0.00;0.00;;;;;;;21.85;66.85;101197.19;5054872;28;20432;-45
2023/07/19 09:05:40;;;;;;;0.00;0.00;;;;;;;21.81;64.96;101195.50;5053737;28;20473;-44
2023/07/19 09:08:08;;;;;;;0.00;0.00;;;;;;;21.79;65.19;101197.28;5055027;28;20083;-49
2023/07/19 09:10:34;;;;;;;0.00;0.00;;;;;;;21.89;65.09;101200.66;5054671;28;20025;-45
2023/07/19 09:13:04;;;;;;;0.00;0.00;;;;;;;21.81;65.94;101195.50;5054180;28;20035;-49
2023/07/19 09:15:29;;;;;;;0.00;0.00;;;;;;;22.07;69.35;101199.56;5054592;28;20037;-45
2023/07/19 09:17:55;;;;;;;0.00;0.00;;;;;;;21.95;67.18;101198.84;5054617;28;20055;-49
2023/07/19 09:20:20;;;;;;;0.00;0.00;;;;;;;22.27;65.32;101187.06;5054162;28;20028;-50
2023/07/19 09:22:46;;;;;;;0.00;0.00;;;;;;;22.55;64.89;101184.03;5054509;28;20032;-49
2023/07/19 09:25:12;;;;;;;0.00;0.00;;;;;;;22.55;63.94;101194.56;5054522;28;20025;-50
2023/07/19 09:27:41;;;;;;;0.00;0.00;;;;;;;22.52;63.10;101203.34;5053556;28;20083;-49
2023/07/19 09:30:13;;;;;;;0.00;0.00;;;;;;;22.17;64.65;101201.19;5054566;28;20048;-47
2023/07/19 09:32:39;;;;;;;0.00;0.00;;;;;;;21.87;65.81;101195.41;5054099;28;20376;-44
2023/07/19 09:35:05;;;;;;;0.00;0.00;;;;;;;21.56;67.32;101198.38;5053739;28;20469;-48
2023/07/19 09:37:31;;;;;;;0.00;0.00;;;;;;;21.32;68.90;101202.97;5053986;28;20033;-48
2023/07/19 09:39:58;;;;;;;0.00;0.00;;;;;;;21.04;69.62;101210.19;5054476;28;20082;-51
2023/07/19 09:42:25;;;;;;;0.00;0.00;;;;;;;21.04;71.71;101200.59;5053001;28;20056;-48
2023/07/19 09:44:50;;;;;;;0.00;0.00;;;;;;;20.97;72.54;101191.03;5054173;28;20029;-49
2023/07/19 09:47:17;;;;;;;0.00;0.00;;;;;;;21.32;70.84;101197.72;5053659;28;20044;-49
2023/07/19 09:49:43;;;;;;;0.00;0.00;;;;;;;21.89;70.45;101198.91;5053193;28;20028;-44
2023/07/19 09:52:12;;;;;;;0.00;0.00;;;;;;;22.18;67.07;101189.78;5054033;28;20272;-45
2023/07/19 09:54:38;;;;;;;0.00;0.00;;;;;;;22.87;65.61;101185.31;5052934;28;20492;-46
2023/07/19 09:57:04;;;;;;;0.00;0.00;;;;;;;23.61;65.28;101186.66;5053960;28;20025;-50
2023/07/19 09:59:43;;;;;;;0.00;0.00;;;;;;;24.02;61.77;101196.44;5053536;28;20388;-50
2023/07/19 10:02:10;;;;;;;0.00;0.00;;;;;;;23.98;58.67;101193.00;5053248;28;20022;-48
2023/07/19 10:04:39;;;;;;;0.00;0.00;;;;;;;23.67;59.19;101191.78;5053672;28;20151;-49
2023/07/19 10:07:07;;;;;;;0.00;0.00;;;;;;;23.82;59.38;101193.28;5053882;28;20029;-48
2023/07/19 10:09:39;;;;;;;0.00;0.00;;;;;;;23.38;59.82;101194.13;5052605;28;20467;-45
2023/07/19 10:12:25;;;;;;;0.00;0.00;;;;;;;23.35;59.34;101197.66;5053672;28;20100;-49
2023/07/19 10:15:07;;;;;;;0.00;0.00;;;;;;;23.05;60.79;101196.41;5053357;28;20045;-44
2023/07/19 10:17:41;;;;;;;0.00;0.00;;;;;;;22.44;61.26;101196.47;5052539;28;20416;-50
2023/07/19 10:20:13;;;;;;;0.00;0.00;;;;;;;22.24;61.86;101189.69;5053672;28;20029;-48
2023/07/19 10:22:49;;;;;;;0.00;0.00;;;;;;;22.34;60.74;101193.94;5052342;28;20025;-47
2023/07/19 10:25:21;;;;;;;0.00;0.00;;;;;;;22.76;58.83;101193.38;5053521;28;20186;-49
2023/07/19 10:27:55;;;;;;;0.00;0.00;;;;;;;22.81;56.79;101198.53;5053255;28;20033;-49
2023/07/19 10:30:20;;;;;;;0.05;0.05;;;;;;;22.71;54.29;101194.31;5052629;28;20469;-49
2023/07/19 10:32:50;;;;;;;0.00;0.00;;;;;;;23.16;53.58;101194.50;5052846;28;20031;-49
2023/07/19 10:35:31;;;;;;;0.00;0.00;;;;;;;23.80;50.96;101194.19;5053305;28;20516;-47
2023/07/19 10:37:56;;;;;;;0.00;0.00;;;;;;;23.68;50.79;101193.53;5052821;28;20504;-48
2023/07/19 10:40:21;;;;;;;0.00;0.00;;;;;;;23.72;49.10;101196.97;5053177;28;20029;-50
2023/07/19 10:42:47;;;;;;;0.00;0.00;;;;;;;23.41;50.77;101197.56;5052685;28;20045;-49
2023/07/19 10:45:12;;;;;;;0.00;0.00;;;;;;;23.55;51.29;101197.31;5052269;28;20392;-50
2023/07/19 10:47:38;;;;;;;0.00;0.00;;;;;;;23.31;51.70;101191.59;5052981;28;20041;-50
2023/07/19 10:50:05;;;;;;;0.00;0.00;;;;;;;23.22;51.79;101191.75;5052994;28;20079;-49
2023/07/19 10:52:31;;;;;;;0.00;0.00;;;;;;;23.00;51.92;101186.84;5051993;28;20428;-44
2023/07/19 10:54:56;;;;;;;0.00;0.00;;;;;;;23.11;53.70;101183.16;5053144;28;20017;-48
2023/07/19 10:57:22;;;;;;;0.00;0.00;;;;;;;23.22;53.10;101186.50;5053079;28;20035;-44
2023/07/19 10:59:51;;;;;;;0.00;0.00;;;;;;;23.15;54.56;101184.84;5051295;28;20381;-48
2023/07/19 11:02:18;;;;;;;0.00;0.00;;;;;;;22.87;55.57;101187.09;5053025;28;20029;-44
2023/07/19 11:04:45;;;;;;;;;;;;;;;23.29;54.11;101190.78;5052406;28;20047;-48
2023/07/19 11:07:10;;;;;;;0.00;0.00;;;;;;;22.84;53.50;101199.38;5052810;28;20365;-48
2023/07/19 11:09:35;;;;;;;0.00;0.00;;;;;;;22.58;55.36;101194.53;5052478;28;20020;-48
2023/07/19 11:12:01;;;;;;;0.00;0.00;;;;;;;22.42;56.37;101183.34;5051992;28;20029;-50
2023/07/19 11:14:33;;;;;;;0.00;0.00;;;;;;;22.21;56.61;101192.38;5052242;28;20068;-49
2023/07/19 11:16:59;;;;;;;0.00;0.00;;;;;;;21.90;57.66;101190.16;5052761;28;20457;-48